»·PEaware :: AAL2433 KDFW-KLAX

AAL2433 :: KDFW-KLAX

FLIGHT INFORMATION

Flight Status: Arrived
Operator:
American Airlines
More flights by this operator :: More flights under this callsign
Pilot: Marwan T. (4597)
Aircraft: BOEING 737-800
(B738)
More flights by this aircraft type
Origin: KDFW Dallas-Ft Worth Intl
United States
Destination: KLAX Los Angeles Intl
United States
More flights between these airports :: More routes between these airports
Route: + TNP SEAVU2
File this flight plan on PilotEdge
Remarks:
Altitude:
(Current/Filed)
38,000ft
Speed:
(Current/Filed)
450kts
Departed: 12-Feb-15 01:35 PM
Arrived: 12-Feb-15 02:41 PM
Distance/Time
Traveled:
1070nm/1:06
Distance/Time
To Go:
Arrived

Flight Plot

Page will automatically refresh every two minutes.

Flight plan parsing failed; only flown route is shown


Map Options




Map Legend


Flown Route
Filed Route
Departure Airport
Arrival Airport
Navaid (VOR, NDB)
Fix

Horizontal Profiles

Position Reports

Time Latitude Longitude Heading Altitude Ground
Speed
12-Feb-15 13:29 34.501192 -108.673666 270 38509ft 507kts
12-Feb-15 13:30 34.506622 -108.844090 269 38509ft 507kts
12-Feb-15 13:31 34.511816 -109.014586 269 38509ft 507kts
12-Feb-15 13:32 34.516789 -109.185665 269 38509ft 507kts
12-Feb-15 13:32 34.520739 -109.327799 269 38509ft 506kts
12-Feb-15 13:34 34.526020 -109.527879 269 38509ft 506kts
12-Feb-15 13:34 34.529572 -109.669984 269 38509ft 506kts
12-Feb-15 13:35 34.533632 -109.841146 269 38509ft 506kts
12-Feb-15 13:36 34.537452 -110.012268 268 38509ft 506kts
12-Feb-15 13:37 34.541019 -110.182757 268 38509ft 506kts
12-Feb-15 13:38 34.544362 -110.353890 268 38509ft 506kts
12-Feb-15 13:39 34.547467 -110.525065 268 38509ft 506kts
12-Feb-15 13:40 34.550322 -110.695625 268 38509ft 506kts
12-Feb-15 13:41 34.552949 -110.866740 268 38509ft 506kts
12-Feb-15 13:42 34.555336 -111.037845 268 38509ft 506kts
12-Feb-15 13:43 34.557485 -111.208958 268 38509ft 506kts
12-Feb-15 13:44 34.559390 -111.379506 268 38509ft 506kts
12-Feb-15 13:45 34.561067 -111.551141 268 38509ft 506kts
12-Feb-15 13:46 34.562496 -111.721730 267 38509ft 506kts
12-Feb-15 13:47 34.563691 -111.892858 267 38509ft 506kts
12-Feb-15 13:48 34.564644 -112.063376 267 38509ft 506kts
12-Feb-15 13:49 34.565365 -112.235026 267 38509ft 506kts
12-Feb-15 13:50 34.565844 -112.406021 267 38509ft 506kts
12-Feb-15 13:51 34.566085 -112.577096 267 38509ft 506kts
12-Feb-15 13:52 34.566088 -112.748172 267 38509ft 506kts
12-Feb-15 13:53 34.565855 -112.918683 267 38509ft 506kts
12-Feb-15 13:54 34.565384 -113.089714 267 38509ft 506kts
12-Feb-15 13:55 34.564732 -113.260696 267 38509ft 506kts
12-Feb-15 13:56 34.563944 -113.431043 266 38509ft 506kts
12-Feb-15 13:57 34.562412 -113.602052 264 38508ft 505kts
12-Feb-15 13:58 34.537017 -113.768701 251 38509ft 499kts
12-Feb-15 13:59 34.502985 -113.931589 251 38509ft 499kts
12-Feb-15 14:00 34.469224 -114.095707 252 38509ft 499kts
12-Feb-15 14:01 34.435748 -114.259295 251 38509ft 499kts
12-Feb-15 14:02 34.402044 -114.422031 251 38509ft 499kts
12-Feb-15 14:03 34.367960 -114.585248 251 38509ft 499kts
12-Feb-15 14:04 34.333688 -114.748160 251 37367ft 494kts
12-Feb-15 14:05 34.299422 -114.909900 252 34641ft 497kts
12-Feb-15 14:06 34.264977 -115.072508 252 31582ft 502kts
12-Feb-15 14:07 34.229416 -115.237421 252 28250ft 507kts
12-Feb-15 14:08 34.193587 -115.402015 253 25060ft 502kts
12-Feb-15 14:09 34.158393 -115.562617 252 24544ft 497kts
12-Feb-15 14:10 34.122500 -115.723839 252 24509ft 498kts
12-Feb-15 14:11 34.093824 -115.887713 259 24509ft 499kts
12-Feb-15 14:13 34.069936 -116.052973 258 24509ft 499kts
12-Feb-15 14:14 34.045748 -116.218043 258 24509ft 499kts
12-Feb-15 14:15 34.020739 -116.382967 258 24509ft 499kts
12-Feb-15 14:16 33.999462 -116.546490 264 22957ft 481kts
12-Feb-15 14:17 33.988263 -116.699072 263 21725ft 447kts
12-Feb-15 14:18 33.976501 -116.846295 263 19935ft 434kts
12-Feb-15 14:19 33.964597 -116.989093 263 18460ft 417kts
12-Feb-15 14:20 33.952825 -117.128754 264 17609ft 416kts
12-Feb-15 14:21 33.941235 -117.265546 264 16270ft 398kts
12-Feb-15 14:22 33.935053 -117.397614 288 14735ft 375kts
12-Feb-15 14:23 33.976930 -117.499458 296 14389ft 318kts
12-Feb-15 14:24 34.009660 -117.594065 293 13785ft 283kts
12-Feb-15 14:25 34.007078 -117.683717 262 12737ft 266kts
12-Feb-15 14:26 33.998386 -117.770833 264 11293ft 264kts
12-Feb-15 14:27 33.989779 -117.858328 262 9929ft 259kts
12-Feb-15 14:28 33.981889 -117.943626 264 7946ft 261kts
12-Feb-15 14:29 33.973219 -118.031954 264 5821ft 250kts
12-Feb-15 14:30 33.965490 -118.108212 261 4584ft 206kts
12-Feb-15 14:31 33.958824 -118.173084 262 3572ft 182kts
12-Feb-15 14:32 33.952967 -118.230316 262 2602ft 161kts
12-Feb-15 14:33 33.947635 -118.282491 260 1768ft 151kts
12-Feb-15 14:33 33.943350 -118.324336 259 1102ft 154kts
12-Feb-15 14:34 33.938123 -118.375309 263 261ft 145kts
12-Feb-15 14:36 33.936093 -118.403458 286 134ft 15kts
12-Feb-15 14:36 33.935895 -118.407831 263 134ft 17kts
12-Feb-15 14:37 33.937568 -118.409056 352 134ft 0kts
12-Feb-15 14:38 33.938592 -118.409077 41 134ft 9kts
12-Feb-15 14:39 33.939159 -118.404969 82 134ft 10kts
12-Feb-15 14:40 33.940556 -118.403090 4 134ft 6kts
12-Feb-15 14:41 33.940790 -118.402597 85 134ft 0kts

Navigation Log

Ident Type
Flight plan parsing failed, navigation log unavailable